Time;durP1;ratioP1;P1;durP2;ratioP2;P2;SDS_P1;SDS_P2;PMS_P1;PMS_P2;Temp;Humidity;BMP_temperature;BMP_pressure;BME280_temperature;BME280_humidity;BME280_pressure;Samples;Min_cycle;Max_cycle;Signal;HPM_P1;HPM_P2
2021/07/21 00:00:39;;;;;;;10.97;6.83;;;;;;;23.20;43.18;97047.75;5092376;28;20834;-67
2021/07/21 00:03:05;;;;;;;8.47;6.70;;;;;;;23.51;41.72;97045.66;5096166;28;20442;-67
2021/07/21 00:05:32;;;;;;;8.30;6.70;;;;;;;23.53;41.93;97051.59;5096832;28;20500;-66
2021/07/21 00:07:58;;;;;;;11.10;7.73;;;;;;;23.93;41.60;97048.81;5095352;28;20458;-67
2021/07/21 00:10:26;;;;;;;7.60;6.20;;;;;;;24.20;40.27;97044.69;5091223;28;20420;-67
2021/07/21 00:15:40;;;;;;;8.23;6.60;;;;;;;24.54;40.33;97039.34;5093018;28;20419;-68
2021/07/21 00:18:19;;;;;;;8.47;6.90;;;;;;;24.41;40.72;97051.19;5097984;28;20459;-68
2021/07/21 00:20:47;;;;;;;8.80;6.40;;;;;;;24.30;40.62;97047.56;5099425;28;20454;-67
2021/07/21 00:23:14;;;;;;;9.07;7.20;;;;;;;24.43;40.58;97048.28;5095310;28;20415;-67
2021/07/21 00:25:39;;;;;;;10.07;7.13;;;;;;;23.81;41.42;97047.28;5090781;28;20451;-68
2021/07/21 00:28:05;;;;;;;13.63;7.33;;;;;;;23.05;41.08;97043.72;5088931;28;21031;-67
2021/07/21 00:30:30;;;;;;;17.73;7.20;;;;;;;22.92;41.35;97047.47;5090090;28;20185;-67
2021/07/21 00:32:56;;;;;;;8.73;6.70;;;;;;;22.67;41.49;97039.72;5090229;28;20501;-67
2021/07/21 00:35:22;;;;;;;8.93;6.03;;;;;;;22.32;42.34;97033.31;5085796;28;20235;-68
2021/07/21 00:37:47;;;;;;;9.00;6.97;;;;;;;22.31;42.91;97030.88;5047136;28;1169421;-66
2021/07/21 00:40:15;;;;;;;13.17;7.17;;;;;;;22.11;43.23;97037.38;5090535;28;20330;-68
2021/07/21 00:42:41;;;;;;;10.50;7.23;;;;;;;22.08;44.11;97032.50;5089596;28;20234;-68
2021/07/21 00:45:07;;;;;;;8.33;6.90;;;;;;;21.86;43.56;97029.56;5090580;28;20809;-68
2021/07/21 00:47:33;;;;;;;11.57;6.77;;;;;;;21.98;45.36;97025.06;5093057;28;20534;-68
2021/07/21 00:49:59;;;;;;;8.07;6.30;;;;;;;22.38;44.02;97020.91;5090698;28;20894;-68
2021/07/21 00:52:25;;;;;;;8.00;6.53;;;;;;;21.81;45.24;97024.91;5090172;28;20196;-68
2021/07/21 00:54:50;;;;;;;10.73;6.47;;;;;;;21.64;43.94;97016.75;5090785;28;20200;-68
2021/07/21 00:57:17;;;;;;;11.87;7.27;;;;;;;21.71;44.32;97020.16;5089228;28;20559;-67
2021/07/21 00:59:43;;;;;;;9.80;7.30;;;;;;;21.50;44.73;97016.13;5090234;28;20210;-66
2021/07/21 01:02:09;;;;;;;12.73;7.70;;;;;;;21.48;47.20;97021.66;5090416;28;20538;-67
2021/07/21 01:04:37;;;;;;;9.47;7.43;;;;;;;21.42;46.63;97019.91;5090084;28;20514;-68
2021/07/21 01:07:05;;;;;;;11.00;7.17;;;;;;;21.31;45.73;97024.16;5086615;28;20293;-66
2021/07/21 01:09:31;;;;;;;11.07;7.40;;;;;;;21.40;47.06;97018.53;5090453;28;20431;-67
2021/07/21 01:12:03;;;;;;;8.23;6.80;;;;;;;22.08;45.08;97024.50;5090338;28;20439;-67
2021/07/21 01:14:47;;;;;;;12.90;8.20;;;;;;;21.83;45.90;97025.50;5082071;28;20438;-67
2021/07/21 01:17:24;;;;;;;10.40;6.80;;;;;;;21.57;44.75;97024.03;5090230;28;20500;-67
2021/07/21 01:20:12;;;;;;;13.00;6.97;;;;;;;21.50;47.26;97026.78;5088986;28;20451;-67
2021/07/21 01:22:39;;;;;;;10.33;7.07;;;;;;;21.17;47.46;97017.41;5090233;28;20522;-67
2021/07/21 01:25:05;;;;;;;9.90;7.70;;;;;;;21.51;45.56;97017.75;5087317;28;20428;-67
2021/07/21 01:27:33;;;;;;;15.63;7.47;;;;;;;21.60;45.42;97016.41;5088809;28;20508;-66
2021/07/21 01:30:26;;;;;;;11.10;7.83;;;;;;;22.02;45.31;97017.41;5090127;28;20609;-66
2021/07/21 01:33:00;;;;;;;9.33;7.10;;;;;;;22.40;44.66;97014.28;5087049;28;20442;-66
2021/07/21 01:35:29;;;;;;;8.63;6.90;;;;;;;22.71;43.98;97016.84;5085868;28;20445;-67
2021/07/21 01:38:00;;;;;;;9.73;6.30;;;;;;;22.44;43.45;97013.84;5089671;28;20898;-66
2021/07/21 01:40:29;;;;;;;10.63;7.20;;;;;;;21.80;45.18;97015.28;5074870;28;20466;-67
2021/07/21 01:42:57;;;;;;;13.63;7.60;;;;;;;21.48;46.01;97010.19;5092442;28;20436;-66
2021/07/21 01:45:24;;;;;;;8.43;7.43;;;;;;;22.11;44.48;97016.03;5093250;28;20422;-66
2021/07/21 01:47:51;;;;;;;8.70;6.60;;;;;;;22.04;45.05;97016.13;5099579;28;20444;-66
2021/07/21 01:50:17;;;;;;;11.00;7.50;;;;;;;21.46;45.76;97004.28;5091941;28;20420;-66
2021/07/21 01:52:48;;;;;;;8.37;7.40;;;;;;;21.86;45.67;97014.38;5100444;28;20438;-66
2021/07/21 01:55:15;;;;;;;11.00;7.00;;;;;;;22.50;44.52;97008.41;5093302;28;20424;-66
2021/07/21 01:57:41;;;;;;;9.30;6.80;;;;;;;22.98;43.37;97003.78;5092421;28;20444;-66
2021/07/21 02:00:10;;;;;;;9.60;7.03;;;;;;;22.91;43.63;97013.78;5093179;28;20546;-66
2021/07/21 02:02:36;;;;;;;11.60;7.50;;;;;;;22.80;42.63;97007.44;5093495;28;20186;-66
2021/07/21 02:05:04;;;;;;;10.30;7.73;;;;;;;21.74;45.53;97011.69;5087640;28;20927;-65
2021/07/21 02:07:30;;;;;;;10.87;7.63;;;;;;;21.07;47.89;97009.09;5093155;28;20478;-66
2021/07/21 02:09:56;;;;;;;12.87;7.50;;;;;;;21.04;47.13;97013.03;5091863;28;20424;-67
2021/07/21 02:12:21;;;;;;;13.30;8.07;;;;;;;21.55;46.33;97005.56;5091951;28;20197;-68
2021/07/21 02:14:47;;;;;;;14.60;7.70;;;;;;;20.59;48.60;97005.34;5092860;28;20189;-67
2021/07/21 02:17:15;;;;;;;12.73;7.57;;;;;;;20.70;49.38;97007.25;5093084;28;20314;-67
2021/07/21 02:19:42;;;;;;;16.10;7.70;;;;;;;20.70;47.76;97002.75;5093385;28;21157;-68
2021/07/21 02:22:08;;;;;;;10.07;7.80;;;;;;;20.91;48.49;97003.38;5094855;28;20454;-67
2021/07/21 02:24:34;;;;;;;13.07;6.97;;;;;;;20.99;48.98;97007.56;5093396;28;20420;-68
2021/07/21 02:27:00;;;;;;;11.67;7.60;;;;;;;20.66;48.25;97006.91;5093094;28;20214;-66
2021/07/21 02:29:26;;;;;;;10.30;7.53;;;;;;;20.79;47.84;97000.63;5091341;28;20933;-65
2021/07/21 02:32:13;;;;;;;11.97;7.63;;;;;;;20.99;49.10;96997.72;5092797;28;20182;-65
2021/07/21 02:34:42;;;;;;;11.37;7.80;;;;;;;21.76;47.47;97003.47;5091437;28;20424;-66
2021/07/21 02:37:08;;;;;;;9.50;7.80;;;;;;;22.00;46.85;97006.97;5083392;28;20556;-66
2021/07/21 02:39:33;;;;;;;11.93;7.33;;;;;;;22.54;45.84;97008.72;5090902;28;20456;-66
2021/07/21 02:41:59;;;;;;;10.33;7.00;;;;;;;22.90;44.58;97008.69;5092810;28;20431;-66
2021/07/21 02:44:25;;;;;;;16.80;7.37;;;;;;;23.03;44.47;96995.03;5074094;28;20358;-66
2021/07/21 02:46:50;;;;;;;14.30;6.97;;;;;;;23.08;44.04;96997.78;5094991;28;20205;-65
2021/07/21 02:49:20;;;;;;;8.90;7.20;;;;;;;23.15;43.44;97001.16;5092035;27;20201;-66
2021/07/21 02:51:59;;;;;;;10.07;7.47;;;;;;;23.12;43.87;97004.31;5073616;28;20601;-67
2021/07/21 02:54:42;;;;;;;10.23;7.40;;;;;;;;;;5090896;28;20955;-67
2021/07/21 02:57:14;;;;;;;8.73;6.33;;;;;;;;;;5092199;28;20447;-67
2021/07/21 02:59:48;;;;;;;11.80;6.43;;;;;;;23.12;43.28;96996.28;5091977;28;20462;-67
2021/07/21 03:02:18;;;;;;;8.90;7.23;;;;;;;23.03;43.76;97003.06;5090889;28;20442;-67
2021/07/21 03:04:44;;;;;;;12.47;7.43;;;;;;;21.97;44.69;97009.28;5089072;28;20427;-66
2021/07/21 03:07:10;;;;;;;11.90;7.57;;;;;;;21.62;45.67;97009.00;5088384;28;20494;-67
2021/07/21 03:09:36;;;;;;;10.30;6.93;;;;;;;21.52;46.87;97014.03;5090691;28;20473;-67
2021/07/21 03:12:05;;;;;;;15.87;8.27;;;;;;;21.74;45.91;97010.88;5073573;28;20945;-67
2021/07/21 03:14:30;;;;;;;11.77;7.87;;;;;;;21.71;47.17;97016.66;5091751;28;20914;-67
2021/07/21 03:17:01;;;;;;;9.63;8.03;;;;;;;21.44;48.31;97011.69;5088769;28;20454;-67
2021/07/21 03:19:27;;;;;;;10.50;7.17;;;;;;;21.00;48.21;97011.84;5082149;28;20301;-67
2021/07/21 03:21:53;;;;;;;11.30;8.03;;;;;;;20.42;50.36;97013.91;5072219;28;20468;-67
2021/07/21 03:24:23;;;;;;;10.67;7.27;;;;;;;20.52;49.19;97014.19;5063702;28;20205;-66
2021/07/21 03:26:50;;;;;;;12.20;7.90;;;;;;;20.63;48.83;97020.66;5085024;28;20451;-67
2021/07/21 03:29:17;;;;;;;13.43;7.30;;;;;;;20.48;51.53;97018.31;5100265;28;20422;-66
2021/07/21 03:31:42;;;;;;;12.23;7.80;;;;;;;20.73;48.37;97020.13;5091697;28;20416;-67
2021/07/21 03:34:11;;;;;;;8.97;6.93;;;;;;;20.21;49.39;97023.09;5090954;28;20455;-67
2021/07/21 03:36:39;;;;;;;11.90;8.20;;;;;;;20.29;50.97;97028.13;5089755;28;20251;-66
2021/07/21 03:39:07;;;;;;;12.37;7.90;;;;;;;20.60;50.21;97026.41;5092069;28;20455;-66
2021/07/21 03:41:34;;;;;;;9.03;6.93;;;;;;;21.12;47.46;97017.25;5090259;28;20431;-66
2021/07/21 03:44:03;;;;;;;11.17;7.87;;;;;;;20.60;50.28;97020.28;5089966;28;20459;-66
2021/07/21 03:46:29;;;;;;;9.20;7.17;;;;;;;20.89;49.69;97020.59;5082061;28;20602;-67
2021/07/21 03:48:57;;;;;;;14.37;8.10;;;;;;;21.00;49.04;97031.31;5069716;28;20494;-67
2021/07/21 03:51:23;;;;;;;15.87;8.43;;;;;;;20.86;48.87;97029.84;5093819;28;20456;-66
2021/07/21 03:53:50;;;;;;;10.33;7.43;;;;;;;20.25;49.22;97033.09;5095161;28;20511;-67
2021/07/21 03:56:16;;;;;;;23.70;11.87;;;;;;;19.63;50.99;97033.72;5088817;28;20991;-66
2021/07/21 03:58:41;;;;;;;33.20;12.97;;;;;;;19.95;52.47;97041.72;5090082;28;20448;-66
2021/07/21 04:01:07;;;;;;;43.13;14.13;;;;;;;19.73;52.81;97038.59;5089883;28;20558;-67
2021/07/21 04:03:37;;;;;;;70.50;20.13;;;;;;;19.70;51.69;97039.00;5091240;28;20244;-66
2021/07/21 04:06:03;;;;;;;44.80;16.00;;;;;;;19.70;52.16;97046.97;5090407;28;20533;-66
2021/07/21 04:08:29;;;;;;;50.93;16.10;;;;;;;19.70;51.83;97039.00;5090685;28;20442;-66
2021/07/21 04:10:56;;;;;;;38.43;14.90;;;;;;;19.91;52.48;97045.03;5091964;28;20802;-67
2021/07/21 04:13:22;;;;;;;15.10;9.13;;;;;;;19.64;51.52;97040.69;5091399;28;20963;-66
2021/07/21 04:15:50;;;;;;;23.57;11.10;;;;;;;19.97;52.71;97046.81;5073361;28;20508;-67
2021/07/21 04:18:15;;;;;;;20.67;10.50;;;;;;;20.78;49.36;97040.81;5089573;28;20527;-66
2021/07/21 04:20:42;;;;;;;19.10;10.33;;;;;;;21.21;48.85;97045.19;5089971;28;20974;-67
2021/07/21 04:23:08;;;;;;;20.50;9.80;;;;;;;20.91;49.71;97045.97;5091375;28;20427;-66
2021/07/21 04:25:34;;;;;;;42.97;14.93;;;;;;;20.84;48.26;97047.88;5088672;28;20431;-66
2021/07/21 04:28:00;;;;;;;23.23;11.47;;;;;;;20.45;50.54;97047.22;5069689;28;20440;-66
2021/07/21 04:30:29;;;;;;;45.30;15.47;;;;;;;20.93;49.33;97043.88;5089813;28;20182;-65
2021/07/21 04:32:55;;;;;;;77.10;21.30;;;;;;;21.11;48.24;97050.25;5091331;28;20482;-65
2021/07/21 04:35:21;;;;;;;50.23;16.63;;;;;;;20.87;50.00;97050.13;5073835;28;20428;-66
2021/07/21 04:37:47;;;;;;;32.80;14.10;;;;;;;21.05;49.27;97045.78;5097930;28;20459;-67
2021/07/21 04:40:14;;;;;;;27.87;11.70;;;;;;;20.81;50.39;97053.66;5098375;28;20205;-66
2021/07/21 04:42:40;;;;;;;32.53;12.80;;;;;;;21.23;48.75;97058.31;5094367;28;20204;-68
2021/07/21 04:45:06;;;;;;;24.00;10.70;;;;;;;21.53;48.35;97054.81;5094533;28;20512;-66
2021/07/21 04:47:35;;;;;;;22.70;10.80;;;;;;;21.71;46.97;97056.66;5101555;28;20497;-68
2021/07/21 04:50:03;;;;;;;17.50;9.40;;;;;;;22.07;46.47;97055.69;5098810;28;20476;-67
2021/07/21 04:52:29;;;;;;;19.53;8.77;;;;;;;22.29;45.94;97055.13;5090201;28;20893;-68
2021/07/21 04:54:54;;;;;;;15.10;8.93;;;;;;;21.91;46.65;97057.19;5098366;28;20419;-66
2021/07/21 04:57:22;;;;;;;12.40;8.50;;;;;;;22.03;46.49;97062.53;5100776;28;20209;-66
2021/07/21 04:59:48;;;;;;;11.87;8.37;;;;;;;22.01;46.43;97061.94;5102068;28;20213;-65
2021/07/21 05:02:15;;;;;;;11.17;8.20;;;;;;;21.96;46.76;97059.16;5095594;28;20428;-66
2021/07/21 05:04:41;;;;;;;13.90;8.63;;;;;;;21.72;46.35;97066.28;5093297;28;20820;-66
2021/07/21 05:07:07;;;;;;;10.60;8.70;;;;;;;21.81;47.72;97062.25;5084007;28;21146;-67
2021/07/21 05:09:32;;;;;;;16.23;9.53;;;;;;;21.79;47.23;97062.47;5091843;28;20548;-66
2021/07/21 05:11:58;;;;;;;13.37;8.77;;;;;;;21.81;46.75;97059.56;5092036;28;20193;-67
2021/07/21 05:14:23;;;;;;;18.00;8.77;;;;;;;21.92;47.97;97077.50;5098793;28;20186;-67
2021/07/21 05:16:49;;;;;;;22.30;8.83;;;;;;;22.16;47.22;97076.69;5099647;28;20206;-66
2021/07/21 05:19:15;;;;;;;15.30;9.60;;;;;;;20.67;49.20;97072.41;5094941;28;20209;-67
2021/07/21 05:21:40;;;;;;;16.83;9.50;;;;;;;19.84;52.12;97081.47;5094898;28;20186;-66
2021/07/21 05:24:06;;;;;;;24.33;9.30;;;;;;;20.66;50.45;97081.44;5093210;28;20189;-67
2021/07/21 05:26:32;;;;;;;13.27;9.30;;;;;;;20.81;51.03;97072.28;5086692;28;20207;-67
2021/07/21 05:28:58;;;;;;;14.53;9.17;;;;;;;20.46;50.28;97080.81;5092329;28;20203;-67
2021/07/21 05:31:23;;;;;;;18.97;8.77;;;;;;;21.33;50.10;97077.25;5094126;28;20533;-67
2021/07/21 05:33:49;;;;;;;16.97;9.67;;;;;;;21.80;49.32;97081.94;5096919;28;20292;-66
2021/07/21 05:36:15;;;;;;;11.07;8.47;;;;;;;21.72;48.83;97088.44;5092694;28;20605;-67
2021/07/21 05:38:40;;;;;;;16.77;9.77;;;;;;;21.66;48.64;97085.88;5093513;28;20210;-68
2021/07/21 05:41:08;;;;;;;13.03;8.60;;;;;;;21.81;47.91;97080.91;5090327;28;20185;-67
2021/07/21 05:43:34;;;;;;;11.77;9.10;;;;;;;19.93;52.81;97096.16;5093524;28;20575;-67
2021/07/21 05:45:59;;;;;;;18.20;8.33;;;;;;;20.02;53.36;97094.88;5096820;28;20419;-66
2021/07/21 05:48:25;;;;;;;11.93;8.17;;;;;;;20.83;51.75;97096.84;5093974;28;20269;-67
2021/07/21 05:50:51;;;;;;;21.00;12.17;;;;;;;20.34;51.82;97094.81;5094295;28;20196;-67
2021/07/21 05:53:16;;;;;;;19.40;11.37;;;;;;;20.89;52.08;97098.66;5093673;28;20582;-67
2021/07/21 05:55:42;;;;;;;19.33;10.37;;;;;;;21.36;50.50;97097.28;5094179;28;20231;-66
2021/07/21 05:58:08;;;;;;;20.53;11.33;;;;;;;21.85;48.92;97097.31;5093380;28;20205;-67
2021/07/21 06:00:34;;;;;;;14.83;9.20;;;;;;;22.18;49.17;97099.44;5092232;28;20181;-66
2021/07/21 06:03:00;;;;;;;16.47;9.77;;;;;;;21.27;51.12;97099.44;5083639;28;20561;-67
2021/07/21 06:05:25;;;;;;;13.90;9.90;;;;;;;20.63;52.19;97113.81;5093940;28;20235;-66
2021/07/21 06:07:51;;;;;;;15.00;10.17;;;;;;;21.27;50.57;97107.44;5093785;28;20539;-67
2021/07/21 06:10:16;;;;;;;14.53;9.67;;;;;;;21.77;49.64;97111.75;5093497;28;20182;-66
2021/07/21 06:12:42;;;;;;;14.60;9.90;;;;;;;20.75;51.64;97111.28;5093484;28;20687;-66
2021/07/21 06:15:08;;;;;;;14.00;9.20;;;;;;;21.82;49.14;97103.88;5092932;28;20178;-67
2021/07/21 06:17:34;;;;;;;15.03;10.80;;;;;;;22.25;48.37;97121.53;5093439;28;20255;-67
2021/07/21 06:20:00;;;;;;;13.17;9.90;;;;;;;22.37;47.55;97124.19;5092795;28;20463;-66
2021/07/21 06:22:32;;;;;;;12.10;9.27;;;;;;;22.40;48.06;97131.75;5093348;28;20186;-66
2021/07/21 06:24:58;;;;;;;12.60;9.17;;;;;;;22.35;47.07;97128.97;5093501;28;20420;-67
2021/07/21 06:27:23;;;;;;;14.33;8.47;;;;;;;22.78;47.50;97127.03;5092762;28;20604;-67
2021/07/21 06:29:49;;;;;;;17.17;10.83;;;;;;;21.62;48.05;97125.47;5091882;28;20230;-67
2021/07/21 06:32:15;;;;;;;13.43;8.73;;;;;;;21.93;48.85;97131.66;5093297;28;20272;-67
2021/07/21 06:34:40;;;;;;;10.33;8.53;;;;;;;22.18;48.68;97139.47;5093270;28;20181;-65
2021/07/21 06:37:08;;;;;;;14.93;9.37;;;;;;;22.86;46.68;97141.91;5095554;28;20690;-66
2021/07/21 06:39:34;;;;;;;22.23;10.07;;;;;;;22.55;47.47;97142.03;5092626;28;20215;-66
2021/07/21 06:42:00;;;;;;;10.93;8.10;;;;;;;23.09;46.50;97143.75;5092134;28;20485;-66
2021/07/21 06:44:25;;;;;;;14.00;9.20;;;;;;;23.21;45.70;97143.75;5092759;28;20503;-67
2021/07/21 06:46:51;;;;;;;14.10;9.30;;;;;;;23.51;44.80;97145.41;5093200;28;20206;-65
2021/07/21 06:49:17;;;;;;;21.43;8.90;;;;;;;23.54;44.65;97144.94;5093010;28;20269;-67
2021/07/21 06:51:43;;;;;;;11.20;9.27;;;;;;;23.70;44.73;97155.94;5093290;28;20709;-66
2021/07/21 06:54:08;;;;;;;12.10;9.50;;;;;;;23.37;44.45;97152.91;5092071;28;20427;-67
2021/07/21 06:56:34;;;;;;;13.50;9.10;;;;;;;23.58;44.04;97166.69;5092912;28;20272;-66
2021/07/21 06:58:59;;;;;;;12.00;8.53;;;;;;;24.22;43.15;97160.38;5091138;28;20219;-67
2021/07/21 07:01:26;;;;;;;13.27;9.63;;;;;;;24.06;43.11;97152.13;5092864;28;20650;-66
2021/07/21 07:03:52;;;;;;;18.27;10.70;;;;;;;22.86;45.58;97161.41;5092251;28;20178;-67
2021/07/21 07:06:18;;;;;;;13.87;10.03;;;;;;;21.83;47.95;97164.19;5092946;28;20441;-66
2021/07/21 07:08:43;;;;;;;18.17;9.43;;;;;;;21.54;49.28;97163.94;5092376;28;20197;-66
2021/07/21 07:11:09;;;;;;;14.93;10.10;;;;;;;21.20;50.32;97166.13;5092325;28;20273;-67
2021/07/21 07:13:36;;;;;;;13.83;10.20;;;;;;;20.81;51.30;97170.81;5092855;28;20227;-67
2021/07/21 07:16:01;;;;;;;13.50;9.43;;;;;;;22.12;48.48;97169.75;5093426;28;20419;-67
2021/07/21 07:18:27;;;;;;;16.23;10.13;;;;;;;22.06;48.38;97167.97;5092072;28;20818;-67
2021/07/21 07:20:54;;;;;;;16.03;9.97;;;;;;;22.03;48.66;97166.59;5092859;28;20190;-66
2021/07/21 07:23:19;;;;;;;19.60;10.27;;;;;;;21.84;48.68;97165.81;5092249;28;20430;-65
2021/07/21 07:25:45;;;;;;;15.30;9.97;;;;;;;22.61;47.24;97167.00;5091190;28;20941;-67
2021/07/21 07:28:11;;;;;;;12.13;9.33;;;;;;;23.36;45.45;97161.97;5094799;28;20552;-66
2021/07/21 07:30:37;;;;;;;13.83;10.00;;;;;;;22.95;46.57;97167.22;5092684;28;20471;-67
2021/07/21 07:33:02;;;;;;;11.23;9.07;;;;;;;23.47;45.32;97163.81;5087908;28;20307;-66
2021/07/21 07:35:28;;;;;;;14.23;9.23;;;;;;;22.55;47.78;97160.72;5094511;28;20625;-66
2021/07/21 07:37:53;;;;;;;16.63;9.00;;;;;;;23.84;44.49;97161.81;5079136;28;20315;-66
2021/07/21 07:40:19;;;;;;;14.30;9.57;;;;;;;23.58;44.39;97153.31;5088436;28;20216;-68
2021/07/21 07:42:46;;;;;;;19.80;9.83;;;;;;;22.45;47.22;97154.31;5090796;28;20237;-66
2021/07/21 07:45:13;;;;;;;15.70;9.73;;;;;;;22.91;46.27;97157.25;5091568;28;20515;-65
2021/07/21 07:47:38;;;;;;;11.83;8.80;;;;;;;23.16;45.99;97160.47;5057352;28;20444;-66
2021/07/21 07:50:07;;;;;;;19.90;9.03;;;;;;;23.84;43.68;97164.50;5097058;28;20506;-66
2021/07/21 07:52:33;;;;;;;9.17;8.27;;;;;;;24.01;42.97;97154.69;5092011;28;20551;-67
2021/07/21 07:54:59;;;;;;;10.47;8.53;;;;;;;24.53;42.75;97155.56;5091608;28;20435;-67
2021/07/21 07:57:25;;;;;;;15.73;9.40;;;;;;;23.81;43.43;97159.66;5091050;28;20443;-67
2021/07/21 07:59:50;;;;;;;15.97;8.87;;;;;;;24.29;42.72;97155.72;5091485;28;20573;-66
2021/07/21 08:02:16;;;;;;;13.70;9.70;;;;;;;25.07;41.38;97154.22;5090434;28;20185;-66
2021/07/21 08:04:42;;;;;;;13.87;9.43;;;;;;;25.04;41.68;97155.50;5091290;28;20186;-66
2021/07/21 08:07:07;;;;;;;10.33;8.23;;;;;;;24.53;42.38;97158.22;5085380;28;20665;-66
2021/07/21 08:09:33;;;;;;;14.13;8.80;;;;;;;25.02;41.70;97151.47;5090361;28;20189;-65
2021/07/21 08:11:59;;;;;;;11.50;8.10;;;;;;;25.10;41.09;97148.34;5091241;28;20273;-67
2021/07/21 08:14:25;;;;;;;10.50;8.83;;;;;;;25.32;40.26;97151.06;5089224;28;20234;-66
2021/07/21 08:16:52;;;;;;;16.63;9.90;;;;;;;24.90;41.00;97152.38;5091383;28;20469;-66
2021/07/21 08:19:19;;;;;;;14.03;9.00;;;;;;;24.04;43.11;97148.88;5089786;28;20451;-66
2021/07/21 08:21:45;;;;;;;13.90;8.97;;;;;;;23.99;43.14;97150.63;5073136;28;20472;-67
2021/07/21 08:24:11;;;;;;;12.40;8.63;;;;;;;24.30;43.27;97151.97;5089342;28;20439;-67
2021/07/21 08:26:37;;;;;;;12.50;8.60;;;;;;;25.22;41.07;97151.72;5091348;28;20428;-66
2021/07/21 08:29:03;;;;;;;20.73;9.33;;;;;;;24.62;42.11;97151.41;5091859;28;20416;-66
2021/07/21 08:31:29;;;;;;;10.80;8.40;;;;;;;25.32;41.38;97145.69;5090091;28;20200;-67
2021/07/21 08:34:00;;;;;;;13.20;8.80;;;;;;;23.83;43.69;97153.00;5081204;28;20428;-65
2021/07/21 08:36:27;;;;;;;13.27;9.47;;;;;;;24.59;42.53;97143.06;5090675;28;20563;-65
2021/07/21 08:38:53;;;;;;;14.03;9.10;;;;;;;25.11;41.72;97149.97;5090974;28;20963;-66
2021/07/21 08:41:19;;;;;;;13.50;10.27;;;;;;;24.37;42.61;97155.31;5086755;28;20485;-67
2021/07/21 08:43:44;;;;;;;15.67;9.77;;;;;;;24.39;42.67;97150.53;5090245;28;20211;-66
2021/07/21 08:46:10;;;;;;;15.30;9.20;;;;;;;25.39;41.29;97145.50;5073294;28;20239;-68
2021/07/21 08:48:36;;;;;;;10.93;9.30;;;;;;;25.43;41.03;97146.69;5091415;28;20197;-66
2021/07/21 08:51:02;;;;;;;23.43;9.70;;;;;;;26.22;39.39;97140.00;5095709;28;20449;-67
2021/07/21 08:53:29;;;;;;;15.10;10.17;;;;;;;26.39;38.58;97141.75;5099763;28;20177;-65
2021/07/21 08:55:55;;;;;;;12.57;9.20;;;;;;;26.36;37.88;97142.25;5100966;28;20423;-65
2021/07/21 08:58:20;;;;;;;15.20;8.90;;;;;;;26.67;37.78;97154.06;5105691;28;20440;-66
2021/07/21 09:00:53;;;;;;;16.83;8.60;;;;;;;26.73;37.81;97144.13;5105362;28;20472;-67
2021/07/21 09:03:21;;;;;;;11.40;8.30;;;;;;;27.24;37.08;97149.06;5097778;28;20178;-67
2021/07/21 09:05:50;;;;;;;10.53;8.23;;;;;;;26.67;38.45;97145.19;5099592;28;20484;-67
2021/07/21 09:08:16;;;;;;;11.57;8.93;;;;;;;27.02;37.57;97153.78;5104951;28;20432;-67
2021/07/21 09:10:43;;;;;;;16.83;9.00;;;;;;;25.98;39.55;97149.41;5113892;28;20574;-68
2021/07/21 09:13:09;;;;;;;17.23;8.87;;;;;;;25.69;39.95;97155.03;5107437;28;20185;-66
2021/07/21 09:15:35;;;;;;;14.83;8.33;;;;;;;26.84;38.17;97147.75;5096823;28;20518;-66
2021/07/21 09:18:05;;;;;;;14.70;9.27;;;;;;;27.10;37.32;97145.22;5095984;28;20458;-67
2021/07/21 09:20:35;;;;;;;10.47;8.20;;;;;;;25.85;38.45;97145.25;5095475;28;20184;-67
2021/07/21 09:23:00;;;;;;;16.00;8.57;;;;;;;25.76;39.61;97155.63;5094508;28;20435;-68
2021/07/21 09:25:29;;;;;;;11.90;8.43;;;;;;;26.76;37.85;97146.31;5094724;28;20838;-64
2021/07/21 09:27:56;;;;;;;13.00;7.80;;;;;;;27.18;36.63;97146.59;5094453;28;20202;-66
2021/07/21 09:30:29;;;;;;;13.67;8.83;;;;;;;26.27;37.87;97149.16;5094506;28;20433;-65
2021/07/21 09:32:54;;;;;;;14.07;8.90;;;;;;;25.08;39.14;97145.94;5091700;28;20498;-64
2021/07/21 09:35:25;;;;;;;15.23;8.57;;;;;;;26.46;37.61;97147.72;5096072;28;20411;-64
2021/07/21 09:37:51;;;;;;;11.50;8.77;;;;;;;26.66;37.14;97146.25;5093050;28;20212;-67
2021/07/21 09:40:17;;;;;;;17.30;8.67;;;;;;;27.00;36.39;97150.53;5092028;28;20444;-65
2021/07/21 09:42:42;;;;;;;13.13;8.00;;;;;;;27.22;35.78;97153.09;5094636;28;20246;-65
2021/07/21 09:45:13;;;;;;;12.50;8.07;;;;;;;27.46;35.47;97144.59;5092125;28;20432;-66
2021/07/21 09:47:51;;;;;;;12.43;8.67;;;;;;;25.60;38.13;97152.75;5094912;28;20213;-66
2021/07/21 09:50:24;;;;;;;11.43;8.53;;;;;;;27.11;36.15;97152.22;5103283;28;20417;-65
2021/07/21 09:52:55;;;;;;;13.03;8.40;;;;;;;27.49;34.83;97141.38;5094610;28;20420;-66
2021/07/21 09:55:22;;;;;;;12.60;9.50;;;;;;;27.09;36.08;97157.03;5093940;28;20424;-66
2021/07/21 09:58:18;;;;;;;15.17;9.30;;;;;;;27.13;36.48;97150.88;5093549;28;20554;-64
2021/07/21 10:00:46;;;;;;;12.10;8.63;;;;;;;26.70;36.64;97151.91;5093007;28;20466;-64
2021/07/21 10:03:25;;;;;;;10.33;9.00;;;;;;;27.07;36.80;97159.16;5093496;28;20423;-67
2021/07/21 10:05:56;;;;;;;13.30;8.83;;;;;;;26.97;36.59;97151.84;5098912;28;20416;-68
2021/07/21 10:08:32;;;;;;;15.20;9.13;;;;;;;26.43;37.59;97152.78;5097910;28;20844;-68
2021/07/21 10:10:59;;;;;;;14.83;9.27;;;;;;;26.48;36.56;97155.53;5101469;28;20531;-66
2021/07/21 10:13:35;;;;;;;11.30;9.80;;;;;;;27.12;35.85;97151.94;5098109;28;20416;-68
2021/07/21 10:16:01;;;;;;;10.90;8.80;;;;;;;27.95;34.96;97149.59;5096064;28;20450;-68
2021/07/21 10:18:28;;;;;;;11.10;8.73;;;;;;;27.81;34.77;97154.66;5086095;28;20490;-67
2021/07/21 10:20:54;;;;;;;11.20;8.37;;;;;;;27.55;35.88;97148.41;5091500;28;20672;-66
2021/07/21 10:23:20;;;;;;;12.80;7.90;;;;;;;27.70;34.60;97148.44;5078440;28;20531;-68
2021/07/21 10:25:45;;;;;;;13.33;9.80;;;;;;;26.96;35.96;97152.94;5083650;28;20174;-65
2021/07/21 10:28:11;;;;;;;16.30;9.73;;;;;;;26.88;36.37;97158.78;5079042;28;20198;-66
2021/07/21 10:30:39;;;;;;;11.57;8.93;;;;;;;27.30;35.98;97155.25;5089865;28;20181;-66
2021/07/21 10:33:05;;;;;;;14.93;9.00;;;;;;;28.36;34.19;97141.56;5091494;28;20209;-66
2021/07/21 10:35:31;;;;;;;14.87;9.10;;;;;;;28.44;33.80;97140.22;5092665;28;20941;-65
2021/07/21 10:37:57;;;;;;;11.90;9.27;;;;;;;28.93;33.00;97140.72;5095494;28;20231;-65
2021/07/21 10:40:25;;;;;;;12.20;8.50;;;;;;;29.73;32.37;97139.13;5088595;28;20974;-65
2021/07/21 10:42:54;;;;;;;12.37;8.57;;;;;;;29.04;33.04;97142.34;5093127;28;20817;-66
2021/07/21 10:45:22;;;;;;;13.03;8.90;;;;;;;29.57;31.57;97138.38;5091700;28;20416;-66
2021/07/21 10:47:48;;;;;;;10.13;8.10;;;;;;;29.27;32.68;97140.88;5091767;28;20471;-66
2021/07/21 10:50:25;;;;;;;14.10;8.23;;;;;;;29.34;32.60;97137.13;5093092;28;20415;-66
2021/07/21 10:53:26;;;;;;;15.10;7.83;;;;;;;29.03;33.01;97143.41;5092913;28;20419;-67
2021/07/21 10:59:11;;;;;;;13.50;9.17;;;;;;;28.52;33.15;97136.16;5081300;28;20475;-66
2021/07/21 11:01:42;;;;;;;12.97;9.40;;;;;;;27.95;33.84;97152.28;5029693;28;20426;-66
2021/07/21 11:04:08;;;;;;;13.33;10.20;;;;;;;27.18;34.62;97146.59;5029805;28;20438;-68
2021/07/21 11:06:37;;;;;;;11.43;9.10;;;;;;;28.39;33.11;97136.72;5030116;28;20435;-67
2021/07/21 11:09:19;;;;;;;11.27;9.47;;;;;;;29.23;31.96;97128.22;5029933;28;20257;-67
2021/07/21 11:11:46;;;;;;;14.07;9.70;;;;;;;29.02;32.32;97133.69;5028740;28;20450;-67
2021/07/21 11:14:33;;;;;;;12.47;8.73;;;;;;;29.53;31.50;97132.72;5028998;28;20473;-67
2021/07/21 11:17:07;;;;;;;10.97;9.40;;;;;;;29.88;30.97;97128.19;5029193;28;20492;-67
2021/07/21 11:19:42;;;;;;;10.73;8.17;;;;;;;30.30;31.21;97125.25;5029385;28;20458;-66
2021/07/21 11:22:18;;;;;;;10.53;8.53;;;;;;;29.79;32.26;97135.28;5029458;28;20426;-67
2021/07/21 11:25:02;;;;;;;17.70;8.70;;;;;;;30.60;30.09;97126.09;5029316;28;20514;-66
2021/07/21 11:27:46;;;;;;;12.00;9.03;;;;;;;30.56;30.58;97116.94;5028984;28;20911;-67
2021/07/21 11:30:39;;;;;;;13.40;8.40;;;;;;;29.28;31.60;97128.22;5028717;28;20509;-66
2021/07/21 11:33:43;;;;;;;12.07;9.87;;;;;;;29.56;31.52;97125.94;5026913;28;20422;-66
2021/07/21 11:36:10;;;;;;;12.80;9.20;;;;;;;29.70;32.07;97126.16;5004646;28;20415;-67